Clayhole, Kentucky
Current Conditions -  °F | °C
As of 8:41 AM on Tuesday 21 Oct 2014 (Local Time) from KJKL Reporting Station
Haze Haze  
Wind Chill: 50°   Ceiling: 400
Heat Index: 50°   Visibility: 6mi
Dew Point: 48°   Wind: 6mph
Humidity: 93%   Direction: NA
Pressure: 29.98"   Gusts: NA
Location:  37.46°N, 83.19°W
Report Text: KJKL 211241Z AUTO VRB05KT 6SM BR OVC004 10/09 A2998 RMK AO2 CIG 003V007 T01000089
Loading
Personal Weather Stations






























Interactive Weather Map
Tropical Storm Tracking
New forecast layout! Learn more

10-Day Weather Forecast

Advertisements
Track Severe Weather on mobile